sensor_id;sensor_type;location;lat;lon;timestamp;pressure;altitude;pressure_sealevel;temperature;humidity
76746;BME280;65671;49.976;20.038;2023-07-13T00:01:28;97617.13;;;20.67;93.67
76746;BME280;65671;49.976;20.038;2023-07-13T00:03:54;97627.72;;;20.59;95.13
76746;BME280;65671;49.976;20.038;2023-07-13T00:06:20;97634.16;;;20.56;96.18
76746;BME280;65671;49.976;20.038;2023-07-13T00:08:46;97630.34;;;20.54;96.35
76746;BME280;65671;49.976;20.038;2023-07-13T00:11:14;97650.41;;;20.45;96.51
76746;BME280;65671;49.976;20.038;2023-07-13T00:13:40;97662.63;;;20.44;98.62
76746;BME280;65671;49.976;20.038;2023-07-13T00:16:08;97641.16;;;20.25;100.00
76746;BME280;65671;49.976;20.038;2023-07-13T00:18:34;97636.09;;;20.23;99.44
76746;BME280;65671;49.976;20.038;2023-07-13T00:20:59;97637.03;;;20.11;100.00
76746;BME280;65671;49.976;20.038;2023-07-13T00:23:38;97634.47;;;20.08;100.00
76746;BME280;65671;49.976;20.038;2023-07-13T00:26:05;97642.41;;;20.05;100.00
76746;BME280;65671;49.976;20.038;2023-07-13T00:28:32;97660.31;;;20.01;100.00
76746;BME280;65671;49.976;20.038;2023-07-13T00:30:57;97653.88;;;20.04;100.00
76746;BME280;65671;49.976;20.038;2023-07-13T00:33:23;97663.72;;;19.78;100.00
76746;BME280;65671;49.976;20.038;2023-07-13T00:35:49;97660.38;;;19.65;100.00
76746;BME280;65671;49.976;20.038;2023-07-13T00:38:15;97683.41;;;19.58;100.00
76746;BME280;65671;49.976;20.038;2023-07-13T00:40:41;97681.91;;;19.57;100.00
76746;BME280;65671;49.976;20.038;2023-07-13T00:43:16;97675.94;;;19.59;100.00
76746;BME280;65671;49.976;20.038;2023-07-13T00:48:12;97701.84;;;19.48;100.00
76746;BME280;65671;49.976;20.038;2023-07-13T00:50:39;97702.19;;;19.41;100.00
76746;BME280;65671;49.976;20.038;2023-07-13T00:53:07;97690.00;;;19.42;100.00
76746;BME280;65671;49.976;20.038;2023-07-13T00:55:34;97682.19;;;19.50;100.00
76746;BME280;65671;49.976;20.038;2023-07-13T00:58:00;97696.84;;;19.47;100.00
76746;BME280;65671;49.976;20.038;2023-07-13T01:00:29;97689.94;;;19.33;100.00
76746;BME280;65671;49.976;20.038;2023-07-13T01:02:54;97702.28;;;19.38;100.00
76746;BME280;65671;49.976;20.038;2023-07-13T01:05:21;97687.97;;;19.43;100.00
76746;BME280;65671;49.976;20.038;2023-07-13T01:07:50;97699.13;;;19.39;100.00
76746;BME280;65671;49.976;20.038;2023-07-13T01:10:17;97707.16;;;19.34;100.00
76746;BME280;65671;49.976;20.038;2023-07-13T01:12:45;97710.09;;;19.30;100.00
76746;BME280;65671;49.976;20.038;2023-07-13T01:15:43;97701.66;;;19.34;100.00
76746;BME280;65671;49.976;20.038;2023-07-13T01:18:25;97703.50;;;19.28;100.00
76746;BME280;65671;49.976;20.038;2023-07-13T01:20:58;97721.09;;;19.39;100.00
76746;BME280;65671;49.976;20.038;2023-07-13T01:23:26;97702.59;;;19.31;100.00
76746;BME280;65671;49.976;20.038;2023-07-13T01:25:52;97706.56;;;19.30;100.00
76746;BME280;65671;49.976;20.038;2023-07-13T01:28:18;97697.09;;;19.31;100.00
76746;BME280;65671;49.976;20.038;2023-07-13T01:30:45;97682.91;;;19.32;100.00
76746;BME280;65671;49.976;20.038;2023-07-13T01:33:16;97675.88;;;19.22;100.00
76746;BME280;65671;49.976;20.038;2023-07-13T01:35:43;97671.63;;;19.21;100.00
76746;BME280;65671;49.976;20.038;2023-07-13T01:38:09;97666.44;;;19.32;100.00
76746;BME280;65671;49.976;20.038;2023-07-13T01:40:36;97654.25;;;19.24;100.00
76746;BME280;65671;49.976;20.038;2023-07-13T01:43:01;97652.25;;;19.34;100.00
76746;BME280;65671;49.976;20.038;2023-07-13T01:45:28;97657.44;;;19.32;100.00
76746;BME280;65671;49.976;20.038;2023-07-13T01:47:53;97651.66;;;19.30;100.00
76746;BME280;65671;49.976;20.038;2023-07-13T01:50:19;97653.50;;;19.33;100.00
76746;BME280;65671;49.976;20.038;2023-07-13T01:52:45;97655.63;;;19.29;100.00
76746;BME280;65671;49.976;20.038;2023-07-13T01:55:10;97666.44;;;19.32;100.00
76746;BME280;65671;49.976;20.038;2023-07-13T01:57:36;97653.16;;;19.31;100.00
76746;BME280;65671;49.976;20.038;2023-07-13T02:00:06;97659.41;;;19.31;100.00
76746;BME280;65671;49.976;20.038;2023-07-13T02:02:32;97633.78;;;19.25;100.00
76746;BME280;65671;49.976;20.038;2023-07-13T02:04:58;97600.56;;;19.23;100.00
76746;BME280;65671;49.976;20.038;2023-07-13T02:07:23;97576.78;;;19.20;100.00
76746;BME280;65671;49.976;20.038;2023-07-13T02:10:08;97585.44;;;19.28;100.00
76746;BME280;65671;49.976;20.038;2023-07-13T02:12:37;97584.25;;;19.20;100.00
76746;BME280;65671;49.976;20.038;2023-07-13T02:15:04;97583.66;;;19.07;100.00
76746;BME280;65671;49.976;20.038;2023-07-13T02:17:30;97581.66;;;19.16;100.00
76746;BME280;65671;49.976;20.038;2023-07-13T02:19:55;97580.44;;;19.08;100.00
76746;BME280;65671;49.976;20.038;2023-07-13T02:22:21;97580.44;;;19.08;100.00
76746;BME280;65671;49.976;20.038;2023-07-13T02:24:47;97572.53;;;18.92;100.00
76746;BME280;65671;49.976;20.038;2023-07-13T02:27:13;97567.03;;;18.92;100.00
76746;BME280;65671;49.976;20.038;2023-07-13T02:29:38;97570.06;;;18.85;100.00
76746;BME280;65671;49.976;20.038;2023-07-13T02:32:04;97574.78;;;18.84;100.00
76746;BME280;65671;49.976;20.038;2023-07-13T02:34:29;97585.91;;;18.81;100.00
76746;BME280;65671;49.976;20.038;2023-07-13T02:36:55;97593.22;;;18.75;100.00
76746;BME280;65671;49.976;20.038;2023-07-13T02:39:20;97597.78;;;18.78;100.00
76746;BME280;65671;49.976;20.038;2023-07-13T02:41:46;97595.63;;;18.64;100.00
76746;BME280;65671;49.976;20.038;2023-07-13T02:44:15;97582.06;;;18.60;100.00
76746;BME280;65671;49.976;20.038;2023-07-13T02:46:41;97575.50;;;18.58;100.00
76746;BME280;65671;49.976;20.038;2023-07-13T02:49:06;97593.78;;;18.52;100.00
76746;BME280;65671;49.976;20.038;2023-07-13T02:51:33;97589.34;;;18.45;100.00
76746;BME280;65671;49.976;20.038;2023-07-13T02:54:00;97584.28;;;18.44;100.00
76746;BME280;65671;49.976;20.038;2023-07-13T02:56:27;97583.53;;;18.43;100.00
76746;BME280;65671;49.976;20.038;2023-07-13T02:58:53;97582.72;;;18.33;100.00
76746;BME280;65671;49.976;20.038;2023-07-13T03:01:20;97575.16;;;18.47;100.00
76746;BME280;65671;49.976;20.038;2023-07-13T03:03:46;97568.75;;;18.40;100.00
76746;BME280;65671;49.976;20.038;2023-07-13T03:06:12;97560.53;;;18.40;100.00
76746;BME280;65671;49.976;20.038;2023-07-13T03:08:38;97566.22;;;18.55;100.00
76746;BME280;65671;49.976;20.038;2023-07-13T03:11:10;97568.91;;;18.46;100.00
76746;BME280;65671;49.976;20.038;2023-07-13T03:13:37;97576.56;;;18.51;100.00
76746;BME280;65671;49.976;20.038;2023-07-13T03:16:03;97580.66;;;18.47;100.00
76746;BME280;65671;49.976;20.038;2023-07-13T03:18:29;97594.69;;;18.49;100.00
76746;BME280;65671;49.976;20.038;2023-07-13T03:20:54;97588.25;;;18.42;100.00
76746;BME280;65671;49.976;20.038;2023-07-13T03:23:21;97591.63;;;18.47;100.00
76746;BME280;65671;49.976;20.038;2023-07-13T03:25:48;97598.50;;;18.51;100.00
76746;BME280;65671;49.976;20.038;2023-07-13T03:28:14;97594.84;;;18.54;100.00
76746;BME280;65671;49.976;20.038;2023-07-13T03:30:40;97590.13;;;18.55;100.00
76746;BME280;65671;49.976;20.038;2023-07-13T03:33:06;97598.38;;;18.64;100.00
76746;BME280;65671;49.976;20.038;2023-07-13T03:35:35;97595.03;;;18.78;100.00
76746;BME280;65671;49.976;20.038;2023-07-13T03:38:00;97599.63;;;18.81;100.00
76746;BME280;65671;49.976;20.038;2023-07-13T03:40:28;97601.00;;;18.85;100.00
76746;BME280;65671;49.976;20.038;2023-07-13T03:42:53;97593.38;;;18.71;100.00
76746;BME280;65671;49.976;20.038;2023-07-13T03:45:19;97599.03;;;18.86;100.00
76746;BME280;65671;49.976;20.038;2023-07-13T03:47:45;97610.00;;;18.77;100.00
76746;BME280;65671;49.976;20.038;2023-07-13T03:50:11;97601.44;;;18.75;100.00
76746;BME280;65671;49.976;20.038;2023-07-13T03:52:36;97604.16;;;18.57;100.00
76746;BME280;65671;49.976;20.038;2023-07-13T03:55:02;97596.41;;;18.73;100.00
76746;BME280;65671;49.976;20.038;2023-07-13T03:57:27;97586.66;;;18.81;100.00
76746;BME280;65671;49.976;20.038;2023-07-13T03:59:53;97582.56;;;18.77;100.00
76746;BME280;65671;49.976;20.038;2023-07-13T04:02:18;97580.41;;;18.81;100.00
76746;BME280;65671;49.976;20.038;2023-07-13T04:04:44;97580.91;;;18.88;100.00
76746;BME280;65671;49.976;20.038;2023-07-13T04:07:09;97585.63;;;19.06;100.00
76746;BME280;65671;49.976;20.038;2023-07-13T04:09:35;97593.88;;;19.15;100.00
76746;BME280;65671;49.976;20.038;2023-07-13T04:12:01;97593.53;;;19.13;100.00
76746;BME280;65671;49.976;20.038;2023-07-13T04:14:27;97593.88;;;19.15;100.00
76746;BME280;65671;49.976;20.038;2023-07-13T04:16:53;97604.84;;;19.06;100.00
76746;BME280;65671;49.976;20.038;2023-07-13T04:19:20;97605.75;;;19.21;100.00
76746;BME280;65671;49.976;20.038;2023-07-13T04:21:45;97610.91;;;19.28;100.00
76746;BME280;65671;49.976;20.038;2023-07-13T04:24:11;97623.44;;;19.38;100.00
76746;BME280;65671;49.976;20.038;2023-07-13T04:26:37;97626.97;;;19.57;100.00
76746;BME280;65671;49.976;20.038;2023-07-13T04:29:04;97624.03;;;19.70;100.00
76746;BME280;65671;49.976;20.038;2023-07-13T04:31:31;97627.41;;;19.65;100.00
76746;BME280;65671;49.976;20.038;2023-07-13T04:33:57;97625.53;;;19.89;100.00
76746;BME280;65671;49.976;20.038;2023-07-13T04:36:22;97631.75;;;19.98;100.00
76746;BME280;65671;49.976;20.038;2023-07-13T04:38:48;97631.56;;;20.11;100.00
76746;BME280;65671;49.976;20.038;2023-07-13T04:41:15;97625.44;;;20.25;100.00
76746;BME280;65671;49.976;20.038;2023-07-13T04:43:41;97626.88;;;20.44;100.00
76746;BME280;65671;49.976;20.038;2023-07-13T04:46:11;97620.16;;;20.45;100.00
76746;BME280;65671;49.976;20.038;2023-07-13T04:48:37;97623.47;;;20.49;100.00
76746;BME280;65671;49.976;20.038;2023-07-13T04:51:03;97620.59;;;20.44;100.00
76746;BME280;65671;49.976;20.038;2023-07-13T04:53:29;97617.72;;;20.71;100.00
76746;BME280;65671;49.976;20.038;2023-07-13T04:55:54;97610.72;;;20.85;100.00
76746;BME280;65671;49.976;20.038;2023-07-13T04:58:20;97605.22;;;20.85;100.00
76746;BME280;65671;49.976;20.038;2023-07-13T05:00:47;97599.03;;;20.99;100.00
76746;BME280;65671;49.976;20.038;2023-07-13T05:03:12;97595.78;;;21.00;100.00
76746;BME280;65671;49.976;20.038;2023-07-13T05:05:38;97595.97;;;20.97;98.38
76746;BME280;65671;49.976;20.038;2023-07-13T05:08:04;97591.75;;;21.49;98.07
76746;BME280;65671;49.976;20.038;2023-07-13T05:10:29;97588.69;;;21.76;95.94
76746;BME280;65671;49.976;20.038;2023-07-13T05:12:55;97591.19;;;21.89;95.77
76746;BME280;65671;49.976;20.038;2023-07-13T05:15:23;97597.19;;;21.87;93.72
76746;BME280;65671;49.976;20.038;2023-07-13T05:17:49;97597.38;;;21.98;92.09
76746;BME280;65671;49.976;20.038;2023-07-13T05:20:15;97591.38;;;22.00;92.18
76746;BME280;65671;49.976;20.038;2023-07-13T05:22:42;97590.63;;;21.85;92.84
76746;BME280;65671;49.976;20.038;2023-07-13T05:25:08;97586.25;;;21.93;94.12
76746;BME280;65671;49.976;20.038;2023-07-13T05:27:35;97591.94;;;22.04;94.11
76746;BME280;65671;49.976;20.038;2023-07-13T05:30:03;97594.03;;;21.80;95.17
76746;BME280;65671;49.976;20.038;2023-07-13T05:32:28;97600.78;;;21.64;94.11
76746;BME280;65671;49.976;20.038;2023-07-13T05:34:54;97610.47;;;21.74;95.00
76746;BME280;65671;49.976;20.038;2023-07-13T05:37:20;97605.63;;;21.69;95.58
76746;BME280;65671;49.976;20.038;2023-07-13T05:39:45;97610.00;;;21.76;95.30
76746;BME280;65671;49.976;20.038;2023-07-13T05:42:10;97614.19;;;22.00;93.39
76746;BME280;65671;49.976;20.038;2023-07-13T05:44:36;97609.16;;;21.99;91.41
76746;BME280;65671;49.976;20.038;2023-07-13T05:47:02;97597.19;;;22.02;92.83
76746;BME280;65671;49.976;20.038;2023-07-13T05:49:27;97592.06;;;21.95;92.58
76746;BME280;65671;49.976;20.038;2023-07-13T05:51:54;97596.50;;;22.07;93.63
76746;BME280;65671;49.976;20.038;2023-07-13T05:54:20;97596.25;;;22.05;95.25
76746;BME280;65671;49.976;20.038;2023-07-13T05:56:45;97590.41;;;22.17;90.39
76746;BME280;65671;49.976;20.038;2023-07-13T05:59:11;97600.66;;;22.32;92.18
76746;BME280;65671;49.976;20.038;2023-07-13T06:01:37;97599.84;;;22.46;92.47
76746;BME280;65671;49.976;20.038;2023-07-13T06:04:03;97603.47;;;22.52;93.52
76746;BME280;65671;49.976;20.038;2023-07-13T06:06:28;97606.75;;;22.21;90.63
76746;BME280;65671;49.976;20.038;2023-07-13T06:08:54;97615.75;;;22.36;91.32
76746;BME280;65671;49.976;20.038;2023-07-13T06:11:23;97607.25;;;22.54;92.44
76746;BME280;65671;49.976;20.038;2023-07-13T06:13:48;97610.66;;;22.64;91.39
76746;BME280;65671;49.976;20.038;2023-07-13T06:16:15;97608.38;;;22.62;91.97
76746;BME280;65671;49.976;20.038;2023-07-13T06:18:41;97602.75;;;22.57;92.68
76746;BME280;65671;49.976;20.038;2023-07-13T06:21:20;97597.94;;;22.52;96.38
76746;BME280;65671;49.976;20.038;2023-07-13T06:23:48;97602.28;;;22.73;95.11
76746;BME280;65671;49.976;20.038;2023-07-13T06:26:14;97584.47;;;22.39;91.42
76746;BME280;65671;49.976;20.038;2023-07-13T06:28:40;97591.59;;;22.46;92.64
76746;BME280;65671;49.976;20.038;2023-07-13T06:31:10;97593.97;;;22.38;93.92
76746;BME280;65671;49.976;20.038;2023-07-13T06:33:36;97597.22;;;22.71;91.07
76746;BME280;65671;49.976;20.038;2023-07-13T06:36:04;97601.44;;;22.87;91.29
76746;BME280;65671;49.976;20.038;2023-07-13T06:38:31;97602.19;;;23.28;91.39
76746;BME280;65671;49.976;20.038;2023-07-13T06:40:56;97602.63;;;23.01;89.20
76746;BME280;65671;49.976;20.038;2023-07-13T06:43:22;97608.13;;;22.81;89.59
76746;BME280;65671;49.976;20.038;2023-07-13T06:45:50;97605.22;;;23.30;91.77
76746;BME280;65671;49.976;20.038;2023-07-13T06:48:17;97602.81;;;23.63;92.56
76746;BME280;65671;49.976;20.038;2023-07-13T06:50:43;97609.28;;;23.55;91.33
76746;BME280;65671;49.976;20.038;2023-07-13T06:53:10;97617.31;;;23.78;92.20
76746;BME280;65671;49.976;20.038;2023-07-13T06:55:36;97618.38;;;23.86;89.98
76746;BME280;65671;49.976;20.038;2023-07-13T06:58:02;97620.53;;;23.77;91.02
76746;BME280;65671;49.976;20.038;2023-07-13T07:00:28;97624.06;;;23.77;90.97
76746;BME280;65671;49.976;20.038;2023-07-13T07:02:53;97619.59;;;23.34;90.00
76746;BME280;65671;49.976;20.038;2023-07-13T07:05:19;97620.78;;;23.07;90.69
76746;BME280;65671;49.976;20.038;2023-07-13T07:07:50;97617.19;;;23.93;88.54
76746;BME280;65671;49.976;20.038;2023-07-13T07:10:16;97619.00;;;24.02;87.46
76746;BME280;65671;49.976;20.038;2023-07-13T07:12:41;97611.25;;;24.06;87.56
76746;BME280;65671;49.976;20.038;2023-07-13T07:15:07;97611.38;;;24.17;88.50
76746;BME280;65671;49.976;20.038;2023-07-13T07:17:33;97603.22;;;23.76;87.84
76746;BME280;65671;49.976;20.038;2023-07-13T07:19:58;97596.44;;;24.09;86.83
76746;BME280;65671;49.976;20.038;2023-07-13T07:22:24;97595.63;;;24.34;90.69
76746;BME280;65671;49.976;20.038;2023-07-13T07:24:55;97603.25;;;23.82;86.53
76746;BME280;65671;49.976;20.038;2023-07-13T07:27:21;97587.72;;;24.53;90.56
76746;BME280;65671;49.976;20.038;2023-07-13T07:29:46;97583.66;;;24.54;86.96
76746;BME280;65671;49.976;20.038;2023-07-13T07:32:12;97598.81;;;24.21;86.14
76746;BME280;65671;49.976;20.038;2023-07-13T07:34:37;97592.22;;;24.13;89.50
76746;BME280;65671;49.976;20.038;2023-07-13T07:37:03;97596.16;;;24.32;85.26
76746;BME280;65671;49.976;20.038;2023-07-13T07:39:29;97593.31;;;24.27;86.28
76746;BME280;65671;49.976;20.038;2023-07-13T07:41:55;97587.97;;;24.55;84.84
76746;BME280;65671;49.976;20.038;2023-07-13T07:44:20;97589.81;;;24.74;83.75
76746;BME280;65671;49.976;20.038;2023-07-13T07:46:46;97579.94;;;24.20;81.91
76746;BME280;65671;49.976;20.038;2023-07-13T07:49:12;97587.91;;;24.43;84.70
76746;BME280;65671;49.976;20.038;2023-07-13T07:51:38;97587.03;;;24.69;83.04
76746;BME280;65671;49.976;20.038;2023-07-13T07:54:04;97582.22;;;24.64;83.41
76746;BME280;65671;49.976;20.038;2023-07-13T07:56:31;97587.66;;;24.89;84.56
76746;BME280;65671;49.976;20.038;2023-07-13T07:59:01;97587.19;;;24.54;83.22
76746;BME280;65671;49.976;20.038;2023-07-13T08:01:28;97593.09;;;24.73;82.69
76746;BME280;65671;49.976;20.038;2023-07-13T08:03:53;97603.81;;;24.91;80.84
76746;BME280;65671;49.976;20.038;2023-07-13T08:06:19;97598.75;;;25.65;82.21
76746;BME280;65671;49.976;20.038;2023-07-13T08:08:45;97599.13;;;25.25;81.08
76746;BME280;65671;49.976;20.038;2023-07-13T08:11:11;97603.50;;;24.89;81.25
76746;BME280;65671;49.976;20.038;2023-07-13T08:13:37;97607.34;;;24.91;80.13
76746;BME280;65671;49.976;20.038;2023-07-13T08:16:04;97597.22;;;24.83;82.00
76746;BME280;65671;49.976;20.038;2023-07-13T08:18:32;97598.50;;;24.87;80.56
76746;BME280;65671;49.976;20.038;2023-07-13T08:21:03;97606.72;;;25.35;81.15
76746;BME280;65671;49.976;20.038;2023-07-13T08:23:29;97604.81;;;26.14;79.67
76746;BME280;65671;49.976;20.038;2023-07-13T08:25:54;97604.84;;;26.25;74.63
76746;BME280;65671;49.976;20.038;2023-07-13T08:28:21;97602.31;;;26.38;74.24
76746;BME280;65671;49.976;20.038;2023-07-13T08:30:51;97601.59;;;26.21;72.14
76746;BME280;65671;49.976;20.038;2023-07-13T08:33:18;97611.16;;;26.25;72.00
76746;BME280;65671;49.976;20.038;2023-07-13T08:35:47;97604.84;;;26.25;71.21
76746;BME280;65671;49.976;20.038;2023-07-13T08:38:14;97603.56;;;26.59;74.25
76746;BME280;65671;49.976;20.038;2023-07-13T08:40:39;97599.47;;;26.71;70.78
76746;BME280;65671;49.976;20.038;2023-07-13T08:43:13;97593.47;;;26.50;72.36
76746;BME280;65671;49.976;20.038;2023-07-13T08:45:51;97593.38;;;26.84;70.53
76746;BME280;65671;49.976;20.038;2023-07-13T08:48:27;97595.47;;;26.55;69.16
76746;BME280;65671;49.976;20.038;2023-07-13T08:51:09;97587.19;;;25.89;69.91
76746;BME280;65671;49.976;20.038;2023-07-13T08:53:42;97578.75;;;25.33;74.72
76746;BME280;65671;49.976;20.038;2023-07-13T08:56:18;97578.28;;;25.46;74.46
76746;BME280;65671;49.976;20.038;2023-07-13T08:58:48;97578.56;;;24.83;77.29
76746;BME280;65671;49.976;20.038;2023-07-13T09:01:24;97569.03;;;24.84;76.81
76746;BME280;65671;49.976;20.038;2023-07-13T09:04:02;97566.16;;;25.32;76.43
76746;BME280;65671;49.976;20.038;2023-07-13T09:14:59;97557.16;;;25.71;73.33
76746;BME280;65671;49.976;20.038;2023-07-13T09:17:29;97551.09;;;25.72;78.14
76746;BME280;65671;49.976;20.038;2023-07-13T09:22:50;97552.53;;;25.29;77.70
76746;BME280;65671;49.976;20.038;2023-07-13T09:25:30;97554.22;;;24.98;77.67
76746;BME280;65671;49.976;20.038;2023-07-13T09:27:59;97553.56;;;24.72;78.04
76746;BME280;65671;49.976;20.038;2023-07-13T09:31:01;97551.75;;;24.58;80.29
76746;BME280;65671;49.976;20.038;2023-07-13T09:33:23;97547.56;;;24.31;79.30
76746;BME280;65671;49.976;20.038;2023-07-13T09:35:49;97545.00;;;24.22;79.02
76746;BME280;65671;49.976;20.038;2023-07-13T09:38:18;97555.50;;;24.13;80.29
76746;BME280;65671;49.976;20.038;2023-07-13T09:41:08;97559.69;;;24.03;77.45
76746;BME280;65671;49.976;20.038;2023-07-13T09:46:27;97557.28;;;23.84;77.99
76746;BME280;65671;49.976;20.038;2023-07-13T09:48:53;97560.69;;;23.74;79.86
76746;BME280;65671;49.976;20.038;2023-07-13T09:51:20;97560.66;;;23.68;80.24
76746;BME280;65671;49.976;20.038;2023-07-13T09:53:46;97553.06;;;23.63;82.70
76746;BME280;65671;49.976;20.038;2023-07-13T09:56:28;97565.44;;;23.42;79.75
76746;BME280;65671;49.976;20.038;2023-07-13T09:58:55;97563.63;;;23.39;82.99
76746;BME280;65671;49.976;20.038;2023-07-13T10:01:37;97570.69;;;23.40;80.73
76746;BME280;65671;49.976;20.038;2023-07-13T10:04:11;97570.00;;;23.25;81.89
76746;BME280;65671;49.976;20.038;2023-07-13T10:06:40;97577.25;;;23.22;82.04
76746;BME280;65671;49.976;20.038;2023-07-13T10:09:08;97577.78;;;23.26;82.17
76746;BME280;65671;49.976;20.038;2023-07-13T10:11:36;97568.34;;;23.13;84.13
76746;BME280;65671;49.976;20.038;2023-07-13T10:14:15;97573.06;;;23.07;83.16
76746;BME280;65671;49.976;20.038;2023-07-13T10:16:43;97569.28;;;23.04;85.48
76746;BME280;65671;49.976;20.038;2023-07-13T10:19:23;97572.94;;;22.96;92.37
76746;BME280;65671;49.976;20.038;2023-07-13T10:21:56;97569.72;;;22.62;92.87
76746;BME280;65671;49.976;20.038;2023-07-13T10:24:23;97588.63;;;22.49;95.75
76746;BME280;65671;49.976;20.038;2023-07-13T10:27:12;97595.91;;;22.17;97.72
76746;BME280;65671;49.976;20.038;2023-07-13T10:29:47;97600.88;;;21.69;99.55
76746;BME280;65671;49.976;20.038;2023-07-13T10:32:14;97608.38;;;21.40;97.45
76746;BME280;65671;49.976;20.038;2023-07-13T10:34:45;97615.41;;;20.70;100.00
76746;BME280;65671;49.976;20.038;2023-07-13T10:37:19;97619.13;;;20.67;99.39
76746;BME280;65671;49.976;20.038;2023-07-13T10:39:52;97608.34;;;20.12;100.00
76746;BME280;65671;49.976;20.038;2023-07-13T10:42:28;97610.59;;;19.81;100.00
76746;BME280;65671;49.976;20.038;2023-07-13T10:44:55;97663.53;;;19.81;100.00
76746;BME280;65671;49.976;20.038;2023-07-13T10:47:21;97665.09;;;19.64;100.00
76746;BME280;65671;49.976;20.038;2023-07-13T10:49:52;97675.50;;;19.60;100.00
76746;BME280;65671;49.976;20.038;2023-07-13T10:58:28;97690.56;;;19.74;100.00
76746;BME280;65671;49.976;20.038;2023-07-13T11:01:08;97682.16;;;19.86;100.00
76746;BME280;65671;49.976;20.038;2023-07-13T11:03:47;97673.94;;;19.68;100.00
76746;BME280;65671;49.976;20.038;2023-07-13T11:13:56;97669.06;;;18.69;100.00
76746;BME280;65671;49.976;20.038;2023-07-13T11:21:32;97683.28;;;18.46;100.00
76746;BME280;65671;49.976;20.038;2023-07-13T11:24:28;97689.56;;;18.15;100.00
76746;BME280;65671;49.976;20.038;2023-07-13T11:26:56;97707.81;;;18.09;100.00
76746;BME280;65671;49.976;20.038;2023-07-13T11:31:59;97755.00;;;17.70;100.00
76746;BME280;65671;49.976;20.038;2023-07-13T11:34:38;97768.88;;;17.75;100.00
76746;BME280;65671;49.976;20.038;2023-07-13T11:37:11;97762.25;;;17.64;100.00
76746;BME280;65671;49.976;20.038;2023-07-13T11:39:42;97780.84;;;17.69;100.00
76746;BME280;65671;49.976;20.038;2023-07-13T11:42:12;97784.16;;;17.64;100.00
76746;BME280;65671;49.976;20.038;2023-07-13T11:44:43;97784.91;;;17.52;100.00
76746;BME280;65671;49.976;20.038;2023-07-13T11:50:31;97805.06;;;17.70;100.00
76746;BME280;65671;49.976;20.038;2023-07-13T11:52:58;97810.06;;;18.06;100.00
76746;BME280;65671;49.976;20.038;2023-07-13T11:55:24;97814.56;;;17.78;100.00
76746;BME280;65671;49.976;20.038;2023-07-13T11:58:00;97819.19;;;17.69;100.00
76746;BME280;65671;49.976;20.038;2023-07-13T12:00:29;97825.03;;;17.58;100.00
76746;BME280;65671;49.976;20.038;2023-07-13T12:02:59;97801.31;;;17.17;100.00
76746;BME280;65671;49.976;20.038;2023-07-13T12:05:25;97806.25;;;16.97;100.00
76746;BME280;65671;49.976;20.038;2023-07-13T12:07:51;97804.59;;;16.87;100.00
76746;BME280;65671;49.976;20.038;2023-07-13T12:10:30;97799.56;;;16.86;100.00
76746;BME280;65671;49.976;20.038;2023-07-13T12:13:05;97804.06;;;16.80;100.00
76746;BME280;65671;49.976;20.038;2023-07-13T12:18:02;97821.66;;;16.79;100.00
76746;BME280;65671;49.976;20.038;2023-07-13T12:20:34;97835.00;;;16.89;100.00
76746;BME280;65671;49.976;20.038;2023-07-13T12:23:01;97828.88;;;16.85;100.00
76746;BME280;65671;49.976;20.038;2023-07-13T12:25:30;97829.22;;;16.87;100.00
76746;BME280;65671;49.976;20.038;2023-07-13T12:27:56;97833.69;;;16.81;100.00
76746;BME280;65671;49.976;20.038;2023-07-13T12:30:26;97832.63;;;16.91;100.00
76746;BME280;65671;49.976;20.038;2023-07-13T12:33:11;97833.13;;;16.86;100.00
76746;BME280;65671;49.976;20.038;2023-07-13T12:35:46;97833.91;;;16.99;100.00
76746;BME280;65671;49.976;20.038;2023-07-13T12:38:13;97830.09;;;16.97;100.00
76746;BME280;65671;49.976;20.038;2023-07-13T12:40:39;97831.28;;;17.08;100.00
76746;BME280;65671;49.976;20.038;2023-07-13T12:43:11;97823.31;;;17.14;100.00
76746;BME280;65671;49.976;20.038;2023-07-13T12:45:38;97819.47;;;17.11;100.00
76746;BME280;65671;49.976;20.038;2023-07-13T12:48:10;97814.78;;;17.12;100.00
76746;BME280;65671;49.976;20.038;2023-07-13T12:50:46;97808.06;;;17.25;100.00
76746;BME280;65671;49.976;20.038;2023-07-13T12:53:15;97808.94;;;17.48;100.00
76746;BME280;65671;49.976;20.038;2023-07-13T12:55:55;97805.84;;;17.46;100.00
76746;BME280;65671;49.976;20.038;2023-07-13T12:58:30;97799.50;;;17.61;100.00
76746;BME280;65671;49.976;20.038;2023-07-13T13:00:59;97796.38;;;17.72;100.00
76746;BME280;65671;49.976;20.038;2023-07-13T13:03:31;97795.31;;;17.69;100.00
76746;BME280;65671;49.976;20.038;2023-07-13T13:06:07;97797.31;;;17.56;100.00
76746;BME280;65671;49.976;20.038;2023-07-13T13:08:47;97785.69;;;17.65;100.00
76746;BME280;65671;49.976;20.038;2023-07-13T13:11:17;97797.22;;;17.81;100.00
76746;BME280;65671;49.976;20.038;2023-07-13T13:13:44;97799.84;;;17.85;100.00
76746;BME280;65671;49.976;20.038;2023-07-13T13:16:22;97801.19;;;18.02;100.00
76746;BME280;65671;49.976;20.038;2023-07-13T13:18:53;97800.94;;;18.31;100.00
76746;BME280;65671;49.976;20.038;2023-07-13T13:21:19;97812.16;;;18.67;100.00
76746;BME280;65671;49.976;20.038;2023-07-13T13:23:45;97811.09;;;18.65;100.00
76746;BME280;65671;49.976;20.038;2023-07-13T13:26:13;97801.16;;;18.58;100.00
76746;BME280;65671;49.976;20.038;2023-07-13T13:28:44;97796.78;;;18.70;100.00
76746;BME280;65671;49.976;20.038;2023-07-13T13:31:11;97796.22;;;18.84;100.00
76746;BME280;65671;49.976;20.038;2023-07-13T13:33:42;97798.81;;;18.78;100.00
76746;BME280;65671;49.976;20.038;2023-07-13T13:36:21;97811.28;;;19.10;100.00